Time;durP1;ratioP1;P1;durP2;ratioP2;P2;SDS_P1;SDS_P2;PMS_P1;PMS_P2;Temp;Humidity;BMP_temperature;BMP_pressure;BME280_temperature;BME280_humidity;BME280_pressure;Samples;Min_cycle;Max_cycle;Signal;HPM_P1;HPM_P2
2023/01/09 00:01:14;;;;;;;;;;;5.60;99.90;;;;;;5074395;28;19923;-78
2023/01/09 00:03:39;;;;;;;;;;;5.60;99.90;;;;;;5072684;28;19908;-78
2023/01/09 00:06:05;;;;;;;;;;;5.60;99.90;;;;;;5073461;28;19916;-77
2023/01/09 00:08:30;;;;;;;;;;;5.60;99.90;;;;;;5073188;28;20020;-80
2023/01/09 00:10:56;;;;;;;;;;;5.60;99.90;;;;;;5073708;28;19908;-78
2023/01/09 00:13:22;;;;;;;;;;;5.50;99.90;;;;;;5073116;28;20053;-78
2023/01/09 00:15:47;;;;;;;;;;;5.50;99.90;;;;;;5072739;28;20270;-78
2023/01/09 00:18:13;;;;;;;;;;;5.50;99.90;;;;;;5076976;28;19971;-78
2023/01/09 00:20:39;;;;;;;;;;;5.50;99.90;;;;;;5076032;28;19913;-78
2023/01/09 00:23:04;;;;;;;;;;;5.50;99.90;;;;;;5076890;28;20373;-78
2023/01/09 00:25:30;;;;;;;;;;;5.50;99.90;;;;;;5076676;28;19908;-80
2023/01/09 00:27:56;;;;;;;;;;;5.50;99.90;;;;;;5076667;28;20318;-78
2023/01/09 00:30:21;;;;;;;;;;;5.50;99.90;;;;;;5076294;28;20377;-78
2023/01/09 00:32:47;;;;;;;;;;;5.50;99.90;;;;;;5075792;28;19965;-78
2023/01/09 00:35:14;;;;;;;;;;;5.50;99.90;;;;;;5076084;28;19928;-78
2023/01/09 00:37:40;;;;;;;;;;;5.50;99.90;;;;;;5076214;28;19916;-78
2023/01/09 00:40:06;;;;;;;;;;;5.60;99.90;;;;;;5075863;28;19913;-78
2023/01/09 00:42:32;;;;;;;;;;;5.60;99.90;;;;;;5074993;28;19923;-80
2023/01/09 00:45:00;;;;;;;;;;;5.70;99.90;;;;;;5075066;28;20012;-79
2023/01/09 00:47:34;;;;;;;;;;;5.80;99.90;;;;;;5075262;28;19908;-78
2023/01/09 00:50:02;;;;;;;;;;;5.80;99.90;;;;;;5073765;28;20003;-78
2023/01/09 00:52:29;;;;;;;;;;;5.80;99.90;;;;;;5074506;28;20290;-78
2023/01/09 00:54:56;;;;;;;;;;;5.80;99.90;;;;;;5073815;28;19915;-79
2023/01/09 00:57:21;;;;;;;;;;;5.80;99.90;;;;;;5074340;28;19913;-79
2023/01/09 00:59:47;;;;;;;;;;;5.80;99.90;;;;;;5073564;28;19937;-79
2023/01/09 01:02:13;;;;;;;;;;;5.90;99.90;;;;;;5073547;28;19969;-79
2023/01/09 01:07:37;;;;;;;;;;;6.00;99.90;;;;;;5074017;28;19919;-79
2023/01/09 01:10:04;;;;;;;;;;;6.10;99.90;;;;;;5073696;28;20003;-80
2023/01/09 01:12:30;;;;;;;;;;;6.10;99.90;;;;;;5073514;28;19913;-81
2023/01/09 01:14:56;;;;;;;;;;;6.20;99.90;;;;;;5073618;28;20270;-79
2023/01/09 01:17:21;;;;;;;;;;;6.30;99.90;;;;;;5073350;28;20018;-79
2023/01/09 01:19:47;;;;;;;;;;;6.30;99.90;;;;;;5071142;28;20350;-78
2023/01/09 01:22:12;;;;;;;;;;;6.30;99.90;;;;;;5073021;28;19939;-79
2023/01/09 01:24:38;;;;;;;;;;;6.30;99.90;;;;;;5072570;28;20019;-78
2023/01/09 01:27:05;;;;;;;;;;;6.30;99.90;;;;;;5073040;28;19942;-78
2023/01/09 01:29:30;;;;;;;;;;;6.30;99.90;;;;;;5072064;28;19914;-80
2023/01/09 01:31:56;;;;;;;;;;;6.30;99.90;;;;;;5072850;28;20247;-78
2023/01/09 01:34:21;;;;;;;;;;;6.30;99.90;;;;;;5072889;28;19909;-78
2023/01/09 01:36:47;;;;;;;;;;;6.30;99.90;;;;;;5072397;28;20272;-78
2023/01/09 01:39:12;;;;;;;;;;;6.30;99.90;;;;;;5072752;28;19923;-78
2023/01/09 01:41:38;;;;;;;;;;;6.30;99.90;;;;;;5072674;28;20323;-79
2023/01/09 01:44:05;;;;;;;;;;;6.30;99.90;;;;;;5072907;28;19915;-78
2023/01/09 01:46:32;;;;;;;;;;;6.30;99.90;;;;;;5071106;28;19916;-81
2023/01/09 01:49:09;;;;;;;;;;;6.30;99.90;;;;;;5072597;28;20010;-78
2023/01/09 01:51:37;;;;;;;;;;;6.30;99.90;;;;;;5072087;28;20004;-79
2023/01/09 01:54:06;;;;;;;;;;;6.40;99.90;;;;;;5072799;28;19944;-78
2023/01/09 01:56:39;;;;;;;;;;;6.30;99.90;;;;;;5072186;28;19915;-81
2023/01/09 01:59:21;;;;;;;;;;;6.30;99.90;;;;;;5072074;28;19947;-79
2023/01/09 02:01:48;;;;;;;;;;;6.30;99.90;;;;;;5071499;28;19920;-79
2023/01/09 02:04:14;;;;;;;;;;;6.30;99.90;;;;;;5071669;28;19920;-79
2023/01/09 02:06:40;;;;;;;;;;;6.20;99.90;;;;;;5070117;28;19958;-81
2023/01/09 02:09:06;;;;;;;;;;;6.20;99.90;;;;;;5072829;28;19947;-82
2023/01/09 02:11:32;;;;;;;;;;;6.20;99.90;;;;;;5072615;28;19958;-83
2023/01/09 02:13:58;;;;;;;;;;;6.20;99.90;;;;;;5072053;28;19959;-82
2023/01/09 02:16:24;;;;;;;;;;;6.20;99.90;;;;;;5073260;28;20004;-82
2023/01/09 02:18:53;;;;;;;;;;;6.20;99.90;;;;;;5072040;28;20004;-82
2023/01/09 02:21:37;;;;;;;;;;;6.20;99.90;;;;;;5072777;28;20044;-82
2023/01/09 02:24:08;;;;;;;;;;;6.20;99.90;;;;;;5072584;28;19912;-82
2023/01/09 02:26:40;;;;;;;;;;;6.20;99.90;;;;;;5072452;28;19908;-82
2023/01/09 02:29:25;;;;;;;;;;;6.20;99.90;;;;;;5072576;28;19908;-82
2023/01/09 02:32:08;;;;;;;;;;;6.20;99.90;;;;;;5071877;28;19912;-82
2023/01/09 02:34:55;;;;;;;;;;;6.30;99.90;;;;;;5072153;28;20007;-82
2023/01/09 02:37:30;;;;;;;;;;;6.30;99.90;;;;;;5071282;28;19920;-82
2023/01/09 02:40:03;;;;;;;;;;;6.30;99.90;;;;;;5071423;28;20743;-81
2023/01/09 02:42:30;;;;;;;;;;;6.30;99.90;;;;;;5072476;28;19913;-81
2023/01/09 02:44:56;;;;;;;;;;;6.30;99.90;;;;;;5071549;28;19958;-82
2023/01/09 02:47:21;;;;;;;;;;;6.30;99.90;;;;;;5072005;28;19909;-82
2023/01/09 02:50:01;;;;;;;;;;;6.30;99.90;;;;;;5071293;28;20016;-82
2023/01/09 02:52:44;;;;;;;;;;;6.30;99.90;;;;;;5072365;28;20383;-82
2023/01/09 02:55:16;;;;;;;;;;;6.30;99.90;;;;;;5072119;28;19909;-82
2023/01/09 02:57:42;;;;;;;;;;;6.40;99.90;;;;;;5071496;28;19966;-83
2023/01/09 03:00:13;;;;;;;;;;;6.40;99.90;;;;;;5072265;28;20015;-82
2023/01/09 03:02:56;;;;;;;;;;;6.40;99.90;;;;;;5072071;28;19913;-83
2023/01/09 03:05:44;;;;;;;;;;;6.40;99.90;;;;;;5072092;28;19920;-82
2023/01/09 03:08:15;;;;;;;;;;;6.40;99.90;;;;;;5071720;28;19909;-81
2023/01/09 03:10:44;;;;;;;;;;;6.40;99.90;;;;;;5071362;28;20022;-81
2023/01/09 03:13:13;;;;;;;;;;;6.40;99.90;;;;;;5071864;28;19954;-81
2023/01/09 03:15:40;;;;;;;;;;;6.40;99.90;;;;;;5071485;28;20251;-83
2023/01/09 03:18:07;;;;;;;;;;;6.40;99.90;;;;;;5072199;28;19908;-81
2023/01/09 03:20:33;;;;;;;;;;;6.40;99.90;;;;;;5071754;28;20384;-80
2023/01/09 03:23:00;;;;;;;;;;;6.40;99.90;;;;;;5071623;28;19913;-82
2023/01/09 03:25:27;;;;;;;;;;;6.50;99.90;;;;;;5072009;28;19909;-79
2023/01/09 03:27:59;;;;;;;;;;;6.50;99.90;;;;;;5072646;28;19935;-79
2023/01/09 03:30:26;;;;;;;;;;;6.50;99.90;;;;;;5073028;28;19908;-79
2023/01/09 03:32:52;;;;;;;;;;;6.40;99.90;;;;;;5071700;28;19915;-83
2023/01/09 03:35:18;;;;;;;;;;;6.40;99.90;;;;;;5073052;28;19909;-84
2023/01/09 03:37:43;;;;;;;;;;;6.40;99.90;;;;;;5073190;28;20258;-82
2023/01/09 03:40:09;;;;;;;;;;;6.30;99.90;;;;;;5072264;28;19912;-81
2023/01/09 03:42:35;;;;;;;;;;;6.30;99.90;;;;;;5070823;28;20230;-82
2023/01/09 03:45:00;;;;;;;;;;;6.20;99.90;;;;;;5071779;28;19932;-83
2023/01/09 03:47:26;;;;;;;;;;;6.20;99.90;;;;;;5072041;28;19909;-86
2023/01/09 03:49:51;;;;;;;;;;;6.10;99.90;;;;;;5071578;28;19928;-85
2023/01/09 03:52:17;;;;;;;;;;;6.10;99.90;;;;;;5074534;28;19909;-84
2023/01/09 03:54:43;;;;;;;;;;;6.00;99.90;;;;;;5075481;28;20199;-82
2023/01/09 03:57:08;;;;;;;;;;;6.00;99.90;;;;;;5076332;28;20265;-84
2023/01/09 03:59:35;;;;;;;;;;;5.90;99.90;;;;;;5076791;28;20102;-82
2023/01/09 04:02:01;;;;;;;;;;;5.90;99.90;;;;;;5079128;28;20639;-83
2023/01/09 04:04:27;;;;;;;;;;;5.90;99.90;;;;;;5079910;28;19931;-82
2023/01/09 04:06:52;;;;;;;;;;;5.90;99.90;;;;;;5078977;28;19909;-82
2023/01/09 04:09:18;;;;;;;;;;;5.80;99.90;;;;;;5079950;28;19916;-81
2023/01/09 04:11:43;;;;;;;;;;;5.90;99.90;;;;;;5080316;28;19909;-82
2023/01/09 04:14:09;;;;;;;;;;;5.90;99.90;;;;;;5078137;28;20067;-80
2023/01/09 04:16:35;;;;;;;;;;;5.90;99.90;;;;;;5097509;28;19908;-79
2023/01/09 04:19:00;;;;;;;;;;;5.90;99.90;;;;;;5098222;28;20088;-81
2023/01/09 04:21:26;;;;;;;;;;;5.90;99.90;;;;;;5098827;28;19907;-80
2023/01/09 04:23:51;;;;;;;;;;;5.90;99.90;;;;;;5098402;28;19900;-83
2023/01/09 04:26:17;;;;;;;;;;;5.90;99.90;;;;;;5098754;28;20004;-82
2023/01/09 04:28:43;;;;;;;;;;;5.90;99.90;;;;;;5098093;28;19900;-82
2023/01/09 04:31:08;;;;;;;;;;;5.90;99.90;;;;;;5079344;28;19909;-82
2023/01/09 04:33:34;;;;;;;;;;;5.90;99.90;;;;;;5075200;28;20262;-82
2023/01/09 04:35:59;;;;;;;;;;;5.90;99.90;;;;;;5074365;28;19924;-82
2023/01/09 04:38:26;;;;;;;;;;;5.80;99.90;;;;;;5073609;28;20395;-81
2023/01/09 04:40:51;;;;;;;;;;;5.80;99.90;;;;;;5074440;28;19916;-82
2023/01/09 04:43:17;;;;;;;;;;;5.70;99.90;;;;;;5074594;28;20000;-80
2023/01/09 04:45:43;;;;;;;;;;;5.70;99.90;;;;;;5074354;28;19927;-81
2023/01/09 04:48:08;;;;;;;;;;;5.70;99.90;;;;;;5074519;28;19912;-81
2023/01/09 04:50:34;;;;;;;;;;;5.70;99.90;;;;;;5074263;28;20339;-80
2023/01/09 04:53:00;;;;;;;;;;;5.70;99.90;;;;;;5073845;28;19916;-81
2023/01/09 04:55:25;;;;;;;;;;;5.70;99.90;;;;;;5074185;28;19999;-80
2023/01/09 04:57:51;;;;;;;;;;;5.70;99.90;;;;;;5074034;28;19912;-80
2023/01/09 05:00:16;;;;;;;;;;;5.60;99.90;;;;;;5074011;28;19918;-80
2023/01/09 05:02:42;;;;;;;;;;;5.60;99.90;;;;;;5074039;28;19913;-80
2023/01/09 05:05:08;;;;;;;;;;;5.60;99.90;;;;;;5073257;28;19995;-80
2023/01/09 05:07:33;;;;;;;;;;;5.60;99.90;;;;;;5073497;28;19947;-80
2023/01/09 05:10:00;;;;;;;;;;;5.60;99.90;;;;;;5073385;28;19912;-80
2023/01/09 05:12:25;;;;;;;;;;;5.60;99.90;;;;;;5074242;28;19932;-78
2023/01/09 05:14:51;;;;;;;;;;;5.50;99.90;;;;;;5073113;28;19913;-82
2023/01/09 05:17:19;;;;;;;;;;;5.50;99.90;;;;;;5073161;28;21405;-82
2023/01/09 05:19:44;;;;;;;;;;;5.50;99.90;;;;;;5074000;28;19916;-84
2023/01/09 05:22:13;;;;;;;;;;;5.40;99.90;;;;;;5073100;28;20322;-81
2023/01/09 05:24:38;;;;;;;;;;;5.40;99.90;;;;;;5074071;28;19962;-80
2023/01/09 05:27:04;;;;;;;;;;;5.40;99.90;;;;;;5072951;28;19909;-82
2023/01/09 05:29:30;;;;;;;;;;;5.30;99.90;;;;;;5073553;28;19909;-82
2023/01/09 05:31:55;;;;;;;;;;;5.20;99.90;;;;;;5071634;28;20254;-82
2023/01/09 05:34:21;;;;;;;;;;;5.30;99.90;;;;;;5073724;28;20034;-81
2023/01/09 05:36:47;;;;;;;;;;;5.20;99.90;;;;;;5072873;28;19919;-84
2023/01/09 05:39:12;;;;;;;;;;;5.20;99.90;;;;;;5073415;28;19912;-80
2023/01/09 05:41:38;;;;;;;;;;;5.20;99.90;;;;;;5073343;28;20329;-82
2023/01/09 05:44:03;;;;;;;;;;;5.20;99.90;;;;;;5072968;28;19961;-80
2023/01/09 05:46:30;;;;;;;;;;;5.20;99.90;;;;;;5073348;28;20009;-82
2023/01/09 05:48:55;;;;;;;;;;;5.10;99.90;;;;;;5072621;28;19916;-82
2023/01/09 05:51:21;;;;;;;;;;;5.10;99.90;;;;;;5073939;28;19916;-81
2023/01/09 05:53:46;;;;;;;;;;;5.10;99.90;;;;;;5072990;28;19970;-82
2023/01/09 05:56:12;;;;;;;;;;;5.10;99.90;;;;;;5073149;28;19916;-82
2023/01/09 05:58:38;;;;;;;;;;;5.10;99.90;;;;;;5072984;28;20328;-81
2023/01/09 06:01:03;;;;;;;;;;;5.10;99.90;;;;;;5072673;28;19913;-81
2023/01/09 06:03:29;;;;;;;;;;;5.00;99.90;;;;;;5073074;28;20269;-82
2023/01/09 06:05:54;;;;;;;;;;;5.10;99.90;;;;;;5072669;28;19951;-82
2023/01/09 06:08:20;;;;;;;;;;;5.00;99.90;;;;;;5073086;28;20095;-82
2023/01/09 06:10:46;;;;;;;;;;;5.00;99.90;;;;;;5073262;28;19909;-82
2023/01/09 06:13:12;;;;;;;;;;;5.00;99.90;;;;;;5072432;28;20004;-82
2023/01/09 06:15:37;;;;;;;;;;;5.00;99.90;;;;;;5072669;28;20003;-81
2023/01/09 06:18:03;;;;;;;;;;;4.90;99.90;;;;;;5072448;28;20312;-82
2023/01/09 06:20:29;;;;;;;;;;;4.90;99.90;;;;;;5072938;28;19912;-81
2023/01/09 06:22:55;;;;;;;;;;;4.90;99.90;;;;;;5072552;28;19919;-82
2023/01/09 06:25:20;;;;;;;;;;;4.90;99.90;;;;;;5072713;28;19913;-81
2023/01/09 06:27:46;;;;;;;;;;;4.90;99.90;;;;;;5071170;28;19995;-80
2023/01/09 06:30:12;;;;;;;;;;;4.90;99.90;;;;;;5071862;28;19913;-81
2023/01/09 06:32:37;;;;;;;;;;;4.90;99.90;;;;;;5070671;28;19908;-81
2023/01/09 06:35:04;;;;;;;;;;;4.90;99.90;;;;;;5070222;28;20319;-81
2023/01/09 06:37:29;;;;;;;;;;;4.90;99.90;;;;;;5071967;28;19908;-81
2023/01/09 06:39:55;;;;;;;;;;;4.80;99.90;;;;;;5071216;28;19912;-82
2023/01/09 06:42:20;;;;;;;;;;;4.80;99.90;;;;;;5072342;28;20369;-82
2023/01/09 06:44:46;;;;;;;;;;;4.80;99.90;;;;;;5073643;28;20258;-82
2023/01/09 06:47:12;;;;;;;;;;;4.80;99.90;;;;;;5072699;28;19909;-81
2023/01/09 06:49:37;;;;;;;;;;;4.80;99.90;;;;;;5071172;28;19920;-81
2023/01/09 06:52:06;;;;;;;;;;;4.70;99.90;;;;;;5071572;28;19912;-82
2023/01/09 06:54:31;;;;;;;;;;;4.80;99.90;;;;;;5072191;28;19920;-82
2023/01/09 06:56:57;;;;;;;;;;;4.70;99.90;;;;;;5071234;28;19908;-81
2023/01/09 06:59:22;;;;;;;;;;;4.80;99.90;;;;;;5072060;28;19961;-81
2023/01/09 07:01:48;;;;;;;;;;;4.70;99.90;;;;;;5071934;28;19912;-81
2023/01/09 07:04:13;;;;;;;;;;;4.70;99.90;;;;;;5069608;28;20019;-82
2023/01/09 07:06:39;;;;;;;;;;;4.70;99.90;;;;;;5071237;28;19909;-79
2023/01/09 07:09:05;;;;;;;;;;;4.70;99.90;;;;;;5070571;28;20003;-81
2023/01/09 07:11:30;;;;;;;;;;;4.70;99.90;;;;;;5071539;28;20007;-82
2023/01/09 07:13:56;;;;;;;;;;;4.70;99.90;;;;;;5070692;28;19914;-81
2023/01/09 07:16:22;;;;;;;;;;;4.70;99.90;;;;;;5070609;28;19916;-80
2023/01/09 07:18:47;;;;;;;;;;;4.70;99.90;;;;;;5071595;28;19966;-80
2023/01/09 07:21:13;;;;;;;;;;;4.70;99.90;;;;;;5070835;28;19991;-81
2023/01/09 07:23:38;;;;;;;;;;;4.70;99.90;;;;;;5071163;28;19957;-81
2023/01/09 07:26:04;;;;;;;;;;;4.70;99.90;;;;;;5069992;28;19919;-82
2023/01/09 07:28:29;;;;;;;;;;;4.70;99.90;;;;;;5071404;28;20318;-81
2023/01/09 07:30:57;;;;;;;;;;;4.80;99.90;;;;;;5070914;28;19915;-82
2023/01/09 07:33:22;;;;;;;;;;;4.70;99.90;;;;;;5071183;28;19932;-79
2023/01/09 07:35:49;;;;;;;;;;;4.70;99.90;;;;;;5064991;28;20334;-79
2023/01/09 07:38:15;;;;;;;;;;;4.70;99.90;;;;;;5060772;28;20089;-79
2023/01/09 07:40:40;;;;;;;;;;;4.70;99.90;;;;;;5054468;28;20100;-79
2023/01/09 07:43:06;;;;;;;;;;;4.70;99.90;;;;;;5050278;28;19980;-79
2023/01/09 07:45:31;;;;;;;;;;;4.60;99.90;;;;;;5050692;28;19955;-78
2023/01/09 07:47:57;;;;;;;;;;;4.60;99.90;;;;;;5050734;28;19912;-80
2023/01/09 07:50:23;;;;;;;;;;;4.60;99.90;;;;;;5050923;28;19943;-79
2023/01/09 07:52:48;;;;;;;;;;;4.50;99.90;;;;;;5052011;28;19959;-79
2023/01/09 07:55:14;;;;;;;;;;;4.50;99.90;;;;;;5059463;28;19947;-80
2023/01/09 07:57:39;;;;;;;;;;;4.50;99.90;;;;;;5058053;28;19909;-80
2023/01/09 08:00:06;;;;;;;;;;;4.50;99.90;;;;;;5050346;28;19924;-79
2023/01/09 08:02:32;;;;;;;;;;;4.50;99.90;;;;;;5049701;28;19948;-80
2023/01/09 08:04:58;;;;;;;;;;;4.50;99.90;;;;;;5050099;28;19920;-82
2023/01/09 08:07:23;;;;;;;;;;;4.50;99.90;;;;;;5050639;28;19909;-80
2023/01/09 08:09:49;;;;;;;;;;;4.50;99.90;;;;;;5050249;28;19916;-79
2023/01/09 08:12:14;;;;;;;;;;;4.40;99.90;;;;;;5050341;28;19962;-79
2023/01/09 08:14:40;;;;;;;;;;;4.50;99.90;;;;;;5050770;28;20327;-80
2023/01/09 08:17:05;;;;;;;;;;;4.50;99.90;;;;;;5050532;28;19908;-80
2023/01/09 08:19:31;;;;;;;;;;;4.50;99.90;;;;;;5051054;28;20326;-80
2023/01/09 08:21:56;;;;;;;;;;;4.50;99.90;;;;;;5050790;28;19919;-82
2023/01/09 08:24:22;;;;;;;;;;;4.40;99.90;;;;;;5049469;28;19909;-80
2023/01/09 08:26:47;;;;;;;;;;;4.50;99.90;;;;;;5051234;28;19909;-79
2023/01/09 08:29:13;;;;;;;;;;;4.40;99.90;;;;;;5050506;28;19909;-79
2023/01/09 08:31:39;;;;;;;;;;;4.50;99.90;;;;;;5051199;28;19996;-80
2023/01/09 08:34:04;;;;;;;;;;;4.50;99.90;;;;;;5050854;28;20015;-80
2023/01/09 08:36:33;;;;;;;;;;;4.50;99.90;;;;;;5051969;28;19986;-81
2023/01/09 08:38:58;;;;;;;;;;;4.50;99.90;;;;;;5054581;28;19913;-83
2023/01/09 08:47:04;;;;;;;;;;;4.50;99.90;;;;;;5054595;28;20012;-80
2023/01/09 08:49:30;;;;;;;;;;;4.50;99.90;;;;;;5054471;28;19947;-80
2023/01/09 08:51:56;;;;;;;;;;;4.60;99.90;;;;;;5054478;28;19913;-80
2023/01/09 08:54:21;;;;;;;;;;;4.60;99.90;;;;;;5054423;28;19985;-80
2023/01/09 08:56:47;;;;;;;;;;;4.60;99.90;;;;;;5054582;28;19909;-80
2023/01/09 08:59:14;;;;;;;;;;;4.60;99.90;;;;;;5054384;28;20019;-80
2023/01/09 09:01:39;;;;;;;;;;;4.60;99.90;;;;;;5054265;28;20007;-81
2023/01/09 09:04:05;;;;;;;;;;;4.60;99.90;;;;;;5053860;28;19953;-82
2023/01/09 09:06:31;;;;;;;;;;;4.60;99.90;;;;;;5054589;28;19960;-81
2023/01/09 09:09:01;;;;;;;;;;;4.60;99.90;;;;;;5053902;28;19909;-80
2023/01/09 09:11:30;;;;;;;;;;;4.60;99.90;;;;;;5053864;28;20385;-80
2023/01/09 09:13:56;;;;;;;;;;;4.60;99.90;;;;;;5054236;28;19909;-81
2023/01/09 09:16:22;;;;;;;;;;;4.60;99.90;;;;;;5055190;28;20031;-81
2023/01/09 09:18:47;;;;;;;;;;;4.60;99.90;;;;;;5057461;28;19974;-82
2023/01/09 09:21:13;;;;;;;;;;;4.60;99.90;;;;;;5057819;28;19913;-82
2023/01/09 09:23:38;;;;;;;;;;;4.60;99.90;;;;;;5054981;28;19909;-82
2023/01/09 09:26:04;;;;;;;;;;;4.60;99.90;;;;;;5056312;28;20314;-82
2023/01/09 09:28:30;;;;;;;;;;;4.70;99.90;;;;;;5056855;28;20239;-82
2023/01/09 09:30:55;;;;;;;;;;;4.70;99.90;;;;;;5055803;28;20045;-82
2023/01/09 09:33:21;;;;;;;;;;;4.70;99.90;;;;;;5054780;28;19913;-82
2023/01/09 09:35:46;;;;;;;;;;;4.70;99.90;;;;;;5072064;28;19952;-80
2023/01/09 09:38:12;;;;;;;;;;;4.70;99.90;;;;;;5077622;28;19907;-81
2023/01/09 09:40:50;;;;;;;;;;;4.70;99.90;;;;;;5077475;28;19970;-83
2023/01/09 09:46:15;;;;;;;;;;;4.70;99.90;;;;;;5075567;28;19962;-81
2023/01/09 09:48:49;;;;;;;;;;;4.70;99.90;;;;;;5074136;28;19937;-81
2023/01/09 09:51:15;;;;;;;;;;;4.70;99.90;;;;;;5069603;28;19921;-78
2023/01/09 09:53:46;;;;;;;;;;;4.80;99.90;;;;;;5073603;28;19935;-80
2023/01/09 09:56:13;;;;;;;;;;;4.70;99.90;;;;;;5078030;28;19942;-83
2023/01/09 09:58:40;;;;;;;;;;;4.80;99.90;;;;;;5081908;28;19943;-82
2023/01/09 10:01:07;;;;;;;;;;;4.90;99.90;;;;;;5082380;28;19923;-83
2023/01/09 10:03:38;;;;;;;;;;;4.90;99.90;;;;;;5081401;28;19909;-82
2023/01/09 10:06:14;;;;;;;;;;;5.00;99.90;;;;;;5077690;28;20026;-83
2023/01/09 10:09:02;;;;;;;;;;;5.10;99.90;;;;;;5078050;28;20277;-80
2023/01/09 10:11:40;;;;;;;;;;;5.20;99.90;;;;;;5076055;28;20260;-81
2023/01/09 10:14:06;;;;;;;;;;;5.20;99.90;;;;;;5077868;28;19912;-84
2023/01/09 10:16:50;;;;;;;;;;;5.30;99.90;;;;;;5075944;28;19988;-80
2023/01/09 10:19:31;;;;;;;;;;;5.30;99.90;;;;;;5075947;28;19924;-81
2023/01/09 10:22:06;;;;;;;;;;;5.30;99.90;;;;;;5076127;28;19913;-80
2023/01/09 10:24:54;;;;;;;;;;;5.30;99.90;;;;;;5074860;28;19962;-81
2023/01/09 10:27:31;;;;;;;;;;;5.40;99.90;;;;;;5075348;28;19908;-81
2023/01/09 10:30:12;;;;;;;;;;;5.40;99.90;;;;;;5075687;28;19916;-80
2023/01/09 10:33:00;;;;;;;;;;;5.50;99.90;;;;;;5075103;28;19916;-80
2023/01/09 10:35:45;;;;;;;;;;;5.50;99.90;;;;;;5061322;28;19958;-80
2023/01/09 10:38:13;;;;;;;;;;;5.50;99.90;;;;;;5074636;28;19912;-80
2023/01/09 10:40:42;;;;;;;;;;;5.50;99.90;;;;;;5074878;28;19912;-80
2023/01/09 10:43:13;;;;;;;;;;;5.60;99.90;;;;;;5074450;28;19912;-83
2023/01/09 10:45:40;;;;;;;;;;;5.70;99.90;;;;;;5074881;28;20391;-80
2023/01/09 10:48:12;;;;;;;;;;;5.80;99.90;;;;;;5075115;28;19978;-80
2023/01/09 10:50:40;;;;;;;;;;;5.90;99.90;;;;;;5078274;28;20318;-79
2023/01/09 10:53:26;;;;;;;;;;;6.00;99.90;;;;;;5074342;28;19947;-79
2023/01/09 10:55:59;;;;;;;;;;;6.00;99.90;;;;;;5073185;28;19912;-79
2023/01/09 10:58:24;;;;;;;;;;;6.00;99.90;;;;;;5072109;28;19908;-80
2023/01/09 11:00:50;;;;;;;;;;;6.00;99.90;;;;;;5074470;28;19913;-80
2023/01/09 11:03:17;;;;;;;;;;;5.90;99.90;;;;;;5073088;28;19923;-81
2023/01/09 11:05:47;;;;;;;;;;;6.00;99.90;;;;;;5073713;28;20027;-79
2023/01/09 11:08:24;;;;;;;;;;;5.90;99.90;;;;;;5073385;28;19908;-81
2023/01/09 11:10:51;;;;;;;;;;;5.90;99.90;;;;;;5074153;28;19912;-80
2023/01/09 11:13:19;;;;;;;;;;;5.90;99.90;;;;;;5073703;28;19909;-81
2023/01/09 11:15:45;;;;;;;;;;;6.00;99.90;;;;;;5073985;28;20218;-81
2023/01/09 11:18:16;;;;;;;;;;;6.00;99.90;;;;;;5073358;28;19912;-83
2023/01/09 11:20:41;;;;;;;;;;;6.00;99.90;;;;;;5072745;28;19916;-80
2023/01/09 11:23:21;;;;;;;;;;;6.00;99.90;;;;;;5072320;28;19935;-80
2023/01/09 11:25:51;;;;;;;;;;;6.00;99.90;;;;;;5073780;28;20006;-80
2023/01/09 11:28:16;;;;;;;;;;;6.10;99.90;;;;;;5073684;28;19912;-80
2023/01/09 11:30:50;;;;;;;;;;;6.20;99.90;;;;;;5072740;28;19908;-80
2023/01/09 11:33:23;;;;;;;;;;;6.20;99.90;;;;;;5072715;28;19935;-81
2023/01/09 11:35:56;;;;;;;;;;;6.20;99.90;;;;;;5072871;28;20003;-80
2023/01/09 11:38:22;;;;;;;;;;;6.30;99.90;;;;;;5071619;28;19909;-79
2023/01/09 11:40:48;;;;;;;;;;;6.30;99.90;;;;;;5072536;28;19931;-79
2023/01/09 11:43:29;;;;;;;;;;;6.30;99.90;;;;;;5071777;28;19912;-79
2023/01/09 11:45:56;;;;;;;;;;;6.30;99.90;;;;;;5072379;28;19920;-79
2023/01/09 11:48:28;;;;;;;;;;;6.30;99.90;;;;;;5071724;28;19913;-79
2023/01/09 11:50:55;;;;;;;;;;;6.30;99.90;;;;;;5071557;28;20345;-79
2023/01/09 11:53:20;;;;;;;;;;;6.30;99.90;;;;;;5071307;28;20227;-79
2023/01/09 11:55:48;;;;;;;;;;;6.30;99.90;;;;;;5070636;28;20019;-79
2023/01/09 11:58:17;;;;;;;;;;;6.40;99.90;;;;;;5071040;28;19954;-82
2023/01/09 12:00:49;;;;;;;;;;;6.40;99.90;;;;;;5072114;28;19924;-80
2023/01/09 12:03:34;;;;;;;;;;;6.40;99.90;;;;;;5071178;28;19982;-81
2023/01/09 12:06:06;;;;;;;;;;;6.50;99.90;;;;;;5072032;28;19908;-80
2023/01/09 12:08:43;;;;;;;;;;;6.50;99.90;;;;;;5070875;28;19956;-80
2023/01/09 12:11:17;;;;;;;;;;;6.50;99.90;;;;;;5071364;28;19936;-80
2023/01/09 12:13:47;;;;;;;;;;;6.50;99.90;;;;;;5074394;28;20007;-80
2023/01/09 12:16:19;;;;;;;;;;;6.50;99.90;;;;;;5075773;28;19909;-83
2023/01/09 12:18:53;;;;;;;;;;;6.60;99.90;;;;;;5075502;28;19989;-80
2023/01/09 12:21:24;;;;;;;;;;;6.60;99.90;;;;;;5074988;28;20029;-80
2023/01/09 12:23:59;;;;;;;;;;;6.60;99.90;;;;;;5075438;28;19916;-80
2023/01/09 12:26:25;;;;;;;;;;;6.60;99.90;;;;;;5074545;28;19909;-80
2023/01/09 12:28:50;;;;;;;;;;;6.70;99.90;;;;;;5074710;28;20423;-80
2023/01/09 12:31:22;;;;;;;;;;;6.80;99.90;;;;;;5067799;28;20090;-80
2023/01/09 12:33:50;;;;;;;;;;;6.90;99.90;;;;;;5074602;28;19934;-79
2023/01/09 12:36:20;;;;;;;;;;;6.90;99.90;;;;;;5073446;28;19951;-81
2023/01/09 12:38:53;;;;;;;;;;;7.10;99.90;;;;;;5074428;28;19912;-80
2023/01/09 12:41:27;;;;;;;;;;;7.10;99.90;;;;;;5073955;28;20384;-80
2023/01/09 12:44:02;;;;;;;;;;;7.20;99.90;;;;;;5074912;28;19909;-80
2023/01/09 12:46:36;;;;;;;;;;;7.30;99.90;;;;;;5073925;28;19915;-80
2023/01/09 12:49:07;;;;;;;;;;;7.30;99.90;;;;;;5074498;28;19922;-79
2023/01/09 12:52:00;;;;;;;;;;;7.30;99.90;;;;;;5073203;28;19920;-80
2023/01/09 12:54:40;;;;;;;;;;;7.30;99.90;;;;;;5049880;28;19908;-80
2023/01/09 12:57:10;;;;;;;;;;;7.20;99.90;;;;;;5073982;28;19908;-78
2023/01/09 12:59:51;;;;;;;;;;;7.20;99.90;;;;;;5071851;28;19970;-79
2023/01/09 13:02:19;;;;;;;;;;;7.20;99.90;;;;;;5072816;28;19913;-83
2023/01/09 13:04:53;;;;;;;;;;;7.30;99.90;;;;;;5073738;28;19919;-78
2023/01/09 13:07:48;;;;;;;;;;;7.40;99.90;;;;;;5073128;28;19974;-80
2023/01/09 13:10:37;;;;;;;;;;;7.50;99.90;;;;;;5059938;28;19909;-79
2023/01/09 13:13:06;;;;;;;;;;;7.60;99.90;;;;;;5073536;28;19947;-80
2023/01/09 13:15:36;;;;;;;;;;;7.70;99.90;;;;;;5072622;28;19954;-79
2023/01/09 13:18:11;;;;;;;;;;;7.80;99.90;;;;;;5074016;28;20333;-83
2023/01/09 13:20:44;;;;;;;;;;;7.90;99.90;;;;;;5073057;28;19920;-79
2023/01/09 13:23:24;;;;;;;;;;;7.90;99.90;;;;;;5073012;28;20239;-79
2023/01/09 13:25:51;;;;;;;;;;;7.90;99.90;;;;;;5072987;28;19964;-80
2023/01/09 13:28:22;;;;;;;;;;;7.90;99.90;;;;;;5072789;28;19940;-85
2023/01/09 13:30:48;;;;;;;;;;;7.90;99.90;;;;;;5073102;28;20379;-80
2023/01/09 13:33:25;;;;;;;;;;;7.80;99.90;;;;;;5073218;28;20003;-79
2023/01/09 13:35:56;;;;;;;;;;;7.70;99.90;;;;;;5071768;28;19916;-80
2023/01/09 13:38:23;;;;;;;;;;;7.70;99.90;;;;;;5072142;28;20381;-80
2023/01/09 13:43:55;;;;;;;;;;;7.60;99.90;;;;;;5063095;28;20005;-80
2023/01/09 13:46:21;;;;;;;;;;;7.60;99.90;;;;;;5060274;28;19927;-79
2023/01/09 13:48:47;;;;;;;;;;;7.60;99.90;;;;;;5053963;28;19996;-80
2023/01/09 13:51:34;;;;;;;;;;;7.60;99.90;;;;;;5052423;28;19921;-79
2023/01/09 13:54:00;;;;;;;;;;;7.70;99.90;;;;;;5061064;28;19951;-82
2023/01/09 13:56:25;;;;;;;;;;;7.70;99.90;;;;;;5062439;28;19923;-81
2023/01/09 13:58:54;;;;;;;;;;;7.70;99.90;;;;;;5059333;28;19940;-80
2023/01/09 14:01:38;;;;;;;;;;;7.80;99.90;;;;;;5066296;28;20290;-80
2023/01/09 14:04:24;;;;;;;;;;;7.80;99.90;;;;;;5072061;28;19920;-78
2023/01/09 14:07:08;;;;;;;;;;;7.90;99.90;;;;;;5071000;28;19943;-80
2023/01/09 14:09:36;;;;;;;;;;;8.00;99.90;;;;;;5065582;28;19912;-80
2023/01/09 14:12:03;;;;;;;;;;;8.00;99.90;;;;;;5059637;28;19912;-82
2023/01/09 14:14:31;;;;;;;;;;;8.10;99.90;;;;;;5050368;28;19909;-80
2023/01/09 14:16:58;;;;;;;;;;;8.10;99.90;;;;;;5052178;28;20377;-80
2023/01/09 14:19:32;;;;;;;;;;;8.00;99.90;;;;;;5051435;28;20015;-80
2023/01/09 14:21:58;;;;;;;;;;;8.00;99.90;;;;;;5051766;28;19924;-80
2023/01/09 14:24:32;;;;;;;;;;;8.00;99.90;;;;;;5051572;28;19934;-80
2023/01/09 14:26:59;;;;;;;;;;;8.00;99.90;;;;;;5051964;28;19908;-80
2023/01/09 14:29:30;;;;;;;;;;;7.90;99.90;;;;;;5051730;28;19970;-81
2023/01/09 14:32:16;;;;;;;;;;;7.90;99.90;;;;;;5052243;28;19909;-80
2023/01/09 14:34:42;;;;;;;;;;;7.90;99.90;;;;;;5046604;28;20437;-81
2023/01/09 14:37:11;;;;;;;;;;;7.90;99.90;;;;;;5051448;28;19909;-81
2023/01/09 14:39:39;;;;;;;;;;;7.90;99.90;;;;;;5050543;28;19979;-80
2023/01/09 14:42:05;;;;;;;;;;;7.80;99.90;;;;;;5051074;28;20012;-81
2023/01/09 14:44:46;;;;;;;;;;;7.90;99.90;;;;;;5051391;28;19970;-80
2023/01/09 14:47:29;;;;;;;;;;;7.90;99.90;;;;;;5050995;28;19913;-80
2023/01/09 14:50:15;;;;;;;;;;;7.90;99.90;;;;;;5051717;28;19915;-80
2023/01/09 14:52:43;;;;;;;;;;;8.00;99.90;;;;;;5050099;28;19982;-80
2023/01/09 14:55:35;;;;;;;;;;;8.00;99.90;;;;;;5051137;28;20070;-80